Time;durP1;ratioP1;P1;durP2;ratioP2;P2;SDS_P1;SDS_P2;PMS_P1;PMS_P2;Temp;Humidity;BMP_temperature;BMP_pressure;BME280_temperature;BME280_humidity;BME280_pressure;Samples;Min_cycle;Max_cycle;Signal;HPM_P1;HPM_P2
2022/08/14 00:00:28;;;;;;;6.30;5.00;;;23.00;93.10;;;;;;5009911;28;20058;-63
2022/08/14 00:02:54;;;;;;;7.78;4.93;;;23.00;93.00;;;;;;5011780;28;20096;-61
2022/08/14 00:05:21;;;;;;;8.30;5.30;;;23.00;93.00;;;;;;5011519;28;20491;-62
2022/08/14 00:07:48;;;;;;;10.13;5.07;;;22.90;93.00;;;;;;5010797;28;20588;-61
2022/08/14 00:10:18;;;;;;;7.05;4.63;;;23.00;93.50;;;;;;5007854;28;20041;-62
2022/08/14 00:12:50;;;;;;;10.48;4.93;;;22.90;93.80;;;;;;5007269;28;20050;-61
2022/08/14 00:15:26;;;;;;;10.27;5.35;;;22.90;93.80;;;;;;5011596;28;20038;-62
2022/08/14 00:17:52;;;;;;;6.47;5.53;;;22.90;93.60;;;;;;5011122;28;20057;-61
2022/08/14 00:20:22;;;;;;;6.97;5.40;;;22.80;93.80;;;;;;5011604;28;20118;-62
2022/08/14 00:22:47;;;;;;;9.65;5.70;;;22.80;94.20;;;;;;5011299;28;20053;-61
2022/08/14 00:25:13;;;;;;;7.55;5.72;;;22.80;94.20;;;;;;5018299;28;20062;-61
2022/08/14 00:27:39;;;;;;;6.57;5.65;;;22.70;94.60;;;;;;5015646;28;20050;-61
2022/08/14 00:30:07;;;;;;;8.48;5.63;;;22.60;94.50;;;;;;5011265;28;20054;-62
2022/08/14 00:32:32;;;;;;;8.85;6.07;;;22.60;94.70;;;;;;5014566;28;20046;-64
2022/08/14 00:35:00;;;;;;;7.20;6.13;;;22.60;94.70;;;;;;5018372;28;20399;-61
2022/08/14 00:37:30;;;;;;;8.55;6.25;;;22.50;95.30;;;;;;4997224;28;20065;-62
2022/08/14 00:39:56;;;;;;;6.93;5.95;;;22.50;95.10;;;;;;5015355;28;20128;-61
2022/08/14 00:42:22;;;;;;;9.18;6.07;;;22.50;95.60;;;;;;4990459;28;20188;-61
2022/08/14 00:44:48;;;;;;;9.23;5.90;;;22.50;95.40;;;;;;5011321;28;20057;-61
2022/08/14 00:47:16;;;;;;;8.70;6.22;;;22.50;95.60;;;;;;5011386;28;20038;-61
2022/08/14 00:49:43;;;;;;;7.80;5.85;;;22.40;95.70;;;;;;5014630;28;20050;-61
2022/08/14 00:52:13;;;;;;;8.93;6.10;;;22.40;96.30;;;;;;5017174;28;20049;-61
2022/08/14 00:54:40;;;;;;;10.43;7.05;;;22.40;95.90;;;;;;5013158;28;20045;-61
2022/08/14 00:57:05;;;;;;;8.20;6.65;;;22.40;95.80;;;;;;5017030;28;20052;-62
2022/08/14 00:59:31;;;;;;;10.30;6.85;;;22.40;96.50;;;;;;5013660;28;20054;-61
2022/08/14 01:01:59;;;;;;;8.88;6.32;;;22.40;96.20;;;;;;5022751;28;20042;-61
2022/08/14 01:04:27;;;;;;;9.85;6.43;;;22.40;96.70;;;;;;5018474;28;20473;-61
2022/08/14 01:06:53;;;;;;;9.13;7.13;;;22.40;97.00;;;;;;5011972;28;20053;-62
2022/08/14 01:09:21;;;;;;;9.02;6.85;;;22.30;96.90;;;;;;5017331;28;20446;-62
2022/08/14 01:11:51;;;;;;;13.98;7.63;;;22.30;97.20;;;;;;5012877;28;20050;-62
2022/08/14 01:14:18;;;;;;;10.73;7.13;;;22.30;97.20;;;;;;5017898;28;20045;-62
2022/08/14 01:16:45;;;;;;;7.82;6.93;;;22.30;96.80;;;;;;5012520;28;20396;-62
2022/08/14 01:21:55;;;;;;;8.40;7.22;;;22.20;97.40;;;;;;5020615;28;20084;-62
2022/08/14 01:24:21;;;;;;;8.23;7.05;;;22.20;97.10;;;;;;5015139;28;20123;-62
2022/08/14 01:26:47;;;;;;;8.00;7.20;;;22.20;97.30;;;;;;5017123;28;20046;-62
2022/08/14 01:29:13;;;;;;;9.68;7.28;;;22.10;97.40;;;;;;5011245;28;20046;-62
2022/08/14 01:32:03;;;;;;;9.25;7.18;;;22.10;97.30;;;;;;5013505;28;20054;-67
2022/08/14 01:34:28;;;;;;;10.70;7.97;;;22.10;97.30;;;;;;5007328;28;20081;-62
2022/08/14 01:36:53;;;;;;;10.13;8.55;;;22.10;97.50;;;;;;5012113;28;20135;-62
2022/08/14 01:39:19;;;;;;;12.15;7.20;;;22.10;97.60;;;;;;5014600;28;20076;-61
2022/08/14 01:41:55;;;;;;;10.93;8.05;;;22.10;97.80;;;;;;5014257;28;20061;-62
2022/08/14 01:44:23;;;;;;;10.57;7.85;;;22.00;98.50;;;;;;5016371;28;20140;-61
2022/08/14 01:46:55;;;;;;;10.77;7.78;;;22.00;98.60;;;;;;5011223;28;20053;-62
2022/08/14 01:49:21;;;;;;;9.77;8.25;;;22.00;98.30;;;;;;5001073;28;20459;-61
2022/08/14 01:51:47;;;;;;;10.27;7.65;;;22.00;98.60;;;;;;4995423;28;20050;-61
2022/08/14 01:54:20;;;;;;;8.70;7.80;;;21.90;98.80;;;;;;5013561;28;20041;-61
2022/08/14 01:56:49;;;;;;;8.57;7.68;;;21.90;98.80;;;;;;5012174;28;20479;-61
2022/08/14 01:59:14;;;;;;;11.18;7.90;;;21.90;99.00;;;;;;5013804;28;20531;-60
2022/08/14 02:01:41;;;;;;;8.48;7.57;;;21.90;98.60;;;;;;5020918;28;20085;-60
2022/08/14 02:04:08;;;;;;;9.35;7.72;;;21.90;99.40;;;;;;5012158;28;20049;-61
2022/08/14 02:06:36;;;;;;;10.43;8.40;;;21.90;99.60;;;;;;5008582;28;20136;-61
2022/08/14 02:09:03;;;;;;;10.35;7.72;;;21.90;99.50;;;;;;5015900;28;20053;-61
2022/08/14 02:11:29;;;;;;;10.02;8.50;;;21.80;99.20;;;;;;5015832;28;20394;-61
2022/08/14 02:14:02;;;;;;;10.32;8.70;;;21.90;99.40;;;;;;5020766;28;20045;-61
2022/08/14 02:16:32;;;;;;;14.93;8.75;;;21.90;99.10;;;;;;5015628;28;20115;-61
2022/08/14 02:19:00;;;;;;;13.43;8.73;;;21.80;99.70;;;;;;5026797;28;20049;-61
2022/08/14 02:21:29;;;;;;;10.70;8.65;;;21.80;99.40;;;;;;5013322;28;20502;-61
2022/08/14 02:23:55;;;;;;;10.45;8.45;;;21.80;99.80;;;;;;5015432;28;20153;-61
2022/08/14 02:26:28;;;;;;;10.55;8.57;;;21.70;99.90;;;;;;5012703;28;20546;-61
2022/08/14 02:28:58;;;;;;;9.40;8.43;;;21.70;99.90;;;;;;5013057;28;20058;-61
2022/08/14 02:31:31;;;;;;;11.48;8.98;;;21.70;99.90;;;;;;5014794;28;20352;-62
2022/08/14 02:33:58;;;;;;;13.95;8.68;;;21.70;99.90;;;;;;5016145;28;20050;-61
2022/08/14 02:36:25;;;;;;;11.63;9.10;;;21.70;99.90;;;;;;5017170;28;20080;-61
2022/08/14 02:38:52;;;;;;;10.00;9.00;;;21.60;99.90;;;;;;5025613;28;20363;-61
2022/08/14 02:41:17;;;;;;;11.80;9.48;;;21.60;99.90;;;;;;5020185;28;20097;-62
2022/08/14 02:43:43;;;;;;;11.13;9.05;;;21.60;99.90;;;;;;5024541;28;20049;-62
2022/08/14 02:46:10;;;;;;;13.75;9.60;;;21.60;99.90;;;;;;5014958;28;20041;-62
2022/08/14 02:48:38;;;;;;;10.27;9.05;;;21.50;99.90;;;;;;5013280;28;20041;-61
2022/08/14 02:51:07;;;;;;;11.30;9.32;;;21.50;99.90;;;;;;5001426;28;20050;-61
2022/08/14 02:53:33;;;;;;;10.80;8.50;;;21.50;99.90;;;;;;5002493;28;20050;-61
2022/08/14 02:56:00;;;;;;;10.63;9.52;;;21.50;99.90;;;;;;5011025;28;20046;-62
2022/08/14 02:58:26;;;;;;;11.20;10.10;;;21.40;99.90;;;;;;5012088;28;20153;-61
2022/08/14 03:00:54;;;;;;;10.82;9.73;;;21.40;99.90;;;;;;5012581;28;20045;-64
2022/08/14 03:03:22;;;;;;;11.25;9.70;;;21.40;99.90;;;;;;5001871;28;20191;-61
2022/08/14 03:05:50;;;;;;;12.88;9.70;;;21.40;99.90;;;;;;4995096;28;20580;-61
2022/08/14 03:08:16;;;;;;;10.43;9.10;;;21.30;99.90;;;;;;5003544;28;20121;-61
2022/08/14 03:10:42;;;;;;;12.73;9.80;;;21.30;99.90;;;;;;5013366;28;20049;-61
2022/08/14 03:13:09;;;;;;;10.85;9.07;;;21.30;99.90;;;;;;5012174;28;20067;-61
2022/08/14 03:15:53;;;;;;;12.15;9.85;;;21.30;99.90;;;;;;5013245;28;20041;-61
2022/08/14 03:18:23;;;;;;;11.05;9.38;;;21.30;99.90;;;;;;5011162;28;20046;-61
2022/08/14 03:20:50;;;;;;;12.85;9.55;;;21.30;99.90;;;;;;5016771;28;20132;-61
2022/08/14 03:23:17;;;;;;;10.30;9.30;;;21.30;99.90;;;;;;5023119;28;20435;-61
2022/08/14 03:25:43;;;;;;;10.38;9.27;;;21.30;99.90;;;;;;5015734;28;20048;-62
2022/08/14 03:28:10;;;;;;;9.80;8.80;;;21.20;99.90;;;;;;5013826;28;20471;-61
2022/08/14 03:30:37;;;;;;;11.18;9.60;;;21.20;99.90;;;;;;4991353;28;20173;-62
2022/08/14 03:33:03;;;;;;;11.90;9.57;;;21.20;99.90;;;;;;5022297;28;20190;-61
2022/08/14 03:35:30;;;;;;;11.13;9.90;;;21.20;99.90;;;;;;5013721;28;20050;-61
2022/08/14 03:38:10;;;;;;;13.63;9.73;;;21.10;99.90;;;;;;5015668;28;20116;-64
2022/08/14 03:40:38;;;;;;;11.38;9.65;;;21.10;99.90;;;;;;5005920;28;20057;-60
2022/08/14 03:43:05;;;;;;;11.40;9.70;;;21.10;99.90;;;;;;5029905;28;20057;-60
2022/08/14 03:45:34;;;;;;;10.77;9.68;;;21.10;99.90;;;;;;5020876;28;20049;-60
2022/08/14 03:48:14;;;;;;;12.20;10.75;;;21.00;99.90;;;;;;5017185;28;20069;-62
2022/08/14 03:50:43;;;;;;;11.20;10.05;;;21.00;99.90;;;;;;5013019;28;20426;-62
2022/08/14 03:53:09;;;;;;;12.15;10.85;;;21.00;99.90;;;;;;5015965;28;20352;-63
2022/08/14 03:55:37;;;;;;;12.10;9.85;;;20.90;99.90;;;;;;5017552;28;20572;-62
2022/08/14 03:58:02;;;;;;;11.20;9.90;;;20.90;99.90;;;;;;5013836;28;20450;-62
2022/08/14 04:00:28;;;;;;;11.77;10.27;;;20.90;99.90;;;;;;5019064;28;20120;-62
2022/08/14 04:02:54;;;;;;;11.30;10.07;;;20.90;99.90;;;;;;5011282;28;20104;-63
2022/08/14 04:05:19;;;;;;;11.73;9.50;;;20.90;99.90;;;;;;5020248;28;20120;-62
2022/08/14 04:07:46;;;;;;;11.57;10.38;;;20.90;99.90;;;;;;5018193;28;20030;-62
2022/08/14 04:10:11;;;;;;;13.95;10.10;;;20.90;99.90;;;;;;5016777;28;20042;-62
2022/08/14 04:12:37;;;;;;;10.85;9.75;;;20.80;99.90;;;;;;5019482;28;20180;-61
2022/08/14 04:15:04;;;;;;;11.65;9.85;;;20.80;99.90;;;;;;5014730;28;20049;-64
2022/08/14 04:17:32;;;;;;;11.40;9.45;;;20.80;99.90;;;;;;5002920;28;20509;-61
2022/08/14 04:20:04;;;;;;;11.48;10.27;;;20.80;99.90;;;;;;5014675;28;20042;-61
2022/08/14 04:22:31;;;;;;;13.57;9.77;;;20.80;99.90;;;;;;5026826;28;20041;-61
2022/08/14 04:24:58;;;;;;;10.55;9.45;;;20.80;99.90;;;;;;4998774;28;20053;-61
2022/08/14 04:27:26;;;;;;;10.95;9.60;;;20.80;99.90;;;;;;5018843;28;20294;-60
2022/08/14 04:29:52;;;;;;;10.57;9.35;;;20.80;99.90;;;;;;5014792;28;20049;-61
2022/08/14 04:32:19;;;;;;;10.55;9.50;;;20.80;99.90;;;;;;5016286;28;20129;-61
2022/08/14 04:34:45;;;;;;;11.82;9.95;;;20.80;99.90;;;;;;5015204;28;20050;-61
2022/08/14 04:45:31;;;;;;;11.18;10.07;;;20.80;99.90;;;;;;5016207;28;19925;-61
2022/08/14 04:48:12;;;;;;;10.10;8.82;;;20.80;99.90;;;;;;5015184;28;20105;-61
2022/08/14 04:50:45;;;;;;;11.25;9.38;;;20.80;99.90;;;;;;5013854;28;20049;-61
2022/08/14 04:53:17;;;;;;;10.57;9.52;;;20.80;99.90;;;;;;5014429;28;20176;-61
2022/08/14 04:55:47;;;;;;;12.65;9.63;;;20.80;99.90;;;;;;5011174;28;20065;-61
2022/08/14 04:58:25;;;;;;;10.23;9.18;;;20.80;99.90;;;;;;5016303;28;20054;-61
2022/08/14 05:00:52;;;;;;;12.00;9.93;;;20.80;99.90;;;;;;5011362;28;20038;-61
2022/08/14 05:03:26;;;;;;;11.57;9.43;;;20.80;99.90;;;;;;5013259;28;20060;-61
2022/08/14 05:05:54;;;;;;;11.15;10.00;;;20.80;99.90;;;;;;5018781;28;20042;-61
2022/08/14 05:08:21;;;;;;;13.35;9.93;;;20.80;99.90;;;;;;4997146;28;20099;-61
2022/08/14 05:10:54;;;;;;;11.10;9.88;;;20.90;99.90;;;;;;5018344;28;20054;-61
2022/08/14 05:13:23;;;;;;;10.32;9.27;;;20.90;99.90;;;;;;5012618;28;20384;-61
2022/08/14 05:15:51;;;;;;;12.18;9.82;;;20.90;99.90;;;;;;5012254;28;20123;-61
2022/08/14 05:18:19;;;;;;;11.52;9.73;;;20.90;99.90;;;;;;5010927;28;20123;-61
2022/08/14 05:20:49;;;;;;;10.75;9.73;;;20.90;99.90;;;;;;5022373;28;20407;-61
2022/08/14 05:23:20;;;;;;;11.75;9.75;;;20.90;99.90;;;;;;5013071;28;20125;-62
2022/08/14 05:25:47;;;;;;;10.95;9.50;;;21.00;99.90;;;;;;5016236;28;20053;-61
2022/08/14 05:28:19;;;;;;;10.38;8.93;;;21.10;99.90;;;;;;4992550;28;20129;-64
2022/08/14 05:30:46;;;;;;;11.27;9.93;;;21.20;99.90;;;;;;5010572;28;20053;-61
2022/08/14 05:33:15;;;;;;;10.95;9.35;;;21.20;99.90;;;;;;5019152;28;20100;-63
2022/08/14 05:35:42;;;;;;;12.73;9.32;;;21.40;99.90;;;;;;4998459;28;20132;-61
2022/08/14 05:38:09;;;;;;;11.38;9.27;;;21.60;99.90;;;;;;5004080;28;20042;-62
2022/08/14 05:40:35;;;;;;;9.88;8.82;;;21.90;99.90;;;;;;5014369;28;20045;-62
2022/08/14 05:43:02;;;;;;;9.23;8.02;;;22.60;99.90;;;;;;5018648;28;20038;-62
2022/08/14 05:45:27;;;;;;;10.18;7.88;;;23.40;99.90;;;;;;5012475;28;20050;-62
2022/08/14 05:47:53;;;;;;;9.25;8.35;;;24.20;99.90;;;;;;5017177;28;20069;-62
2022/08/14 05:50:19;;;;;;;10.15;8.27;;;25.10;99.10;;;;;;5012106;28;20046;-62
2022/08/14 05:52:50;;;;;;;8.85;7.95;;;25.70;96.30;;;;;;5015570;28;20588;-62
2022/08/14 05:55:16;;;;;;;10.35;7.40;;;26.40;96.90;;;;;;5012047;28;20129;-65
2022/08/14 05:57:51;;;;;;;8.55;7.38;;;27.00;94.30;;;;;;5008585;28;20104;-62
2022/08/14 06:00:20;;;;;;;8.05;6.82;;;27.60;93.00;;;;;;5009779;28;20084;-65
2022/08/14 06:02:46;;;;;;;8.85;7.07;;;28.20;91.70;;;;;;5009687;28;20042;-63
2022/08/14 06:05:12;;;;;;;9.93;6.65;;;28.70;91.60;;;;;;5007722;28;20447;-63
2022/08/14 06:07:38;;;;;;;10.07;6.72;;;29.20;91.00;;;;;;5009137;28;20038;-61
2022/08/14 06:10:06;;;;;;;7.68;6.30;;;29.80;90.80;;;;;;5009995;28;20056;-61
2022/08/14 06:12:32;;;;;;;8.40;7.00;;;30.10;90.70;;;;;;5009457;28;20112;-62
2022/08/14 06:14:58;;;;;;;7.57;6.50;;;30.60;90.10;;;;;;5006346;28;20062;-62
2022/08/14 06:17:24;;;;;;;7.68;6.70;;;30.80;89.80;;;;;;5004416;28;20053;-62
2022/08/14 06:19:50;;;;;;;11.98;6.70;;;31.10;87.10;;;;;;5002032;28;20048;-62
2022/08/14 06:22:16;;;;;;;8.27;6.60;;;31.20;86.10;;;;;;5002068;28;20456;-62
2022/08/14 06:24:41;;;;;;;7.95;6.88;;;31.20;86.40;;;;;;5000710;28;20475;-62
2022/08/14 06:27:07;;;;;;;8.45;6.63;;;30.80;85.10;;;;;;5001611;28;20046;-61
2022/08/14 06:29:33;;;;;;;10.57;6.65;;;30.80;86.00;;;;;;5004786;28;20489;-62
2022/08/14 06:31:59;;;;;;;9.60;6.97;;;31.10;86.60;;;;;;5006385;28;20589;-61
2022/08/14 06:34:25;;;;;;;9.50;6.97;;;31.20;85.10;;;;;;5004620;28;20088;-62
2022/08/14 06:36:50;;;;;;;8.35;7.45;;;31.10;83.60;;;;;;4993366;28;20057;-62
2022/08/14 06:39:16;;;;;;;9.32;6.63;;;31.10;84.20;;;;;;5007766;28;20041;-62
2022/08/14 06:41:42;;;;;;;8.00;6.65;;;31.20;84.90;;;;;;5008280;28;20115;-61
2022/08/14 06:44:08;;;;;;;10.38;6.57;;;31.40;84.60;;;;;;4991639;28;20054;-63
2022/08/14 06:46:34;;;;;;;8.00;6.43;;;31.30;84.60;;;;;;4996402;28;20046;-61
2022/08/14 06:49:00;;;;;;;7.35;6.05;;;31.70;84.80;;;;;;4991906;28;20047;-62
2022/08/14 06:51:25;;;;;;;7.15;6.43;;;31.70;83.70;;;;;;4996283;28;20054;-61
2022/08/14 06:53:51;;;;;;;8.68;6.90;;;31.90;83.30;;;;;;4992319;28;20533;-61
2022/08/14 06:56:17;;;;;;;8.68;7.03;;;32.10;83.30;;;;;;5000148;28;20173;-62
2022/08/14 06:58:43;;;;;;;7.97;6.43;;;31.80;81.80;;;;;;5002319;28;20164;-62
2022/08/14 07:06:41;;;;;;;7.10;6.15;;;32.50;83.40;;;;;;5008504;28;20411;-62
2022/08/14 07:09:09;;;;;;;10.02;6.75;;;32.40;82.60;;;;;;5006954;28;20041;-62
2022/08/14 07:11:34;;;;;;;6.90;6.13;;;32.70;82.00;;;;;;5006084;28;20042;-62
2022/08/14 07:14:00;;;;;;;10.23;6.53;;;32.70;81.90;;;;;;4992007;28;20052;-62
2022/08/14 07:16:26;;;;;;;7.07;6.15;;;32.70;81.90;;;;;;5009216;28;20100;-62
2022/08/14 07:18:52;;;;;;;8.60;6.03;;;32.70;81.60;;;;;;5011593;28;20078;-62
2022/08/14 07:21:18;;;;;;;7.28;5.78;;;32.90;81.60;;;;;;5004779;28;20069;-62
2022/08/14 07:23:43;;;;;;;7.55;5.68;;;32.90;81.50;;;;;;5009929;28;20046;-60
2022/08/14 07:26:09;;;;;;;6.18;5.55;;;32.90;81.40;;;;;;5019858;28;20037;-61
2022/08/14 07:28:37;;;;;;;8.00;5.82;;;33.00;80.60;;;;;;4994448;28;20064;-63
2022/08/14 07:31:09;;;;;;;6.53;5.20;;;33.20;80.40;;;;;;4996680;28;20061;-63
2022/08/14 07:33:41;;;;;;;7.65;5.28;;;33.20;80.60;;;;;;5004695;28;20419;-63
2022/08/14 07:36:09;;;;;;;6.60;5.63;;;33.00;80.30;;;;;;5013480;28;20046;-62
2022/08/14 07:38:35;;;;;;;6.47;5.00;;;32.70;80.20;;;;;;5010811;28;20061;-61
2022/08/14 07:41:04;;;;;;;6.88;5.15;;;32.90;79.90;;;;;;4994650;28;20041;-62
2022/08/14 07:43:29;;;;;;;8.95;5.80;;;32.90;80.50;;;;;;5011153;28;20565;-62
2022/08/14 07:45:55;;;;;;;6.35;5.00;;;33.00;80.40;;;;;;5010801;28;20053;-61
2022/08/14 07:48:21;;;;;;;8.13;5.03;;;33.00;79.90;;;;;;5010871;28;20053;-62
2022/08/14 07:50:49;;;;;;;7.65;5.28;;;33.20;80.20;;;;;;5011995;28;20042;-62
2022/08/14 07:53:16;;;;;;;8.18;5.28;;;33.40;79.90;;;;;;5011773;28;20108;-61
2022/08/14 07:55:42;;;;;;;6.97;5.00;;;33.70;80.10;;;;;;5012062;28;20042;-62
2022/08/14 07:58:09;;;;;;;6.53;5.03;;;33.90;79.20;;;;;;5011883;28;20045;-61
2022/08/14 08:00:35;;;;;;;8.10;5.05;;;34.10;79.10;;;;;;5011317;28;20045;-62
2022/08/14 08:03:02;;;;;;;8.25;4.80;;;34.60;79.00;;;;;;5012367;28;20046;-62
2022/08/14 08:05:28;;;;;;;7.55;5.07;;;34.90;77.50;;;;;;5013360;28;20551;-62
2022/08/14 08:07:54;;;;;;;5.32;4.70;;;35.30;76.70;;;;;;5019168;28;20128;-62
2022/08/14 08:10:33;;;;;;;7.65;4.72;;;35.80;77.10;;;;;;5015138;28;20034;-62
2022/08/14 08:13:12;;;;;;;5.03;4.47;;;36.10;77.00;;;;;;5018190;28;20045;-62
2022/08/14 08:15:43;;;;;;;6.63;4.40;;;36.00;76.30;;;;;;5014906;28;20073;-62
2022/08/14 08:18:12;;;;;;;6.93;4.50;;;36.30;75.80;;;;;;5013440;28;20045;-61
2022/08/14 08:20:44;;;;;;;6.93;4.90;;;36.60;75.60;;;;;;5017951;28;20052;-62
2022/08/14 08:23:09;;;;;;;6.77;4.70;;;36.30;74.60;;;;;;5013374;28;20094;-62
2022/08/14 08:25:37;;;;;;;5.85;4.40;;;36.40;75.20;;;;;;5017046;28;20490;-62
2022/08/14 08:28:17;;;;;;;6.85;4.53;;;37.00;75.20;;;;;;5018943;28;20038;-61
2022/08/14 08:30:55;;;;;;;5.47;4.40;;;37.00;73.60;;;;;;5015731;28;20050;-62
2022/08/14 08:33:25;;;;;;;6.85;4.20;;;37.20;74.10;;;;;;5016582;28;20038;-61
2022/08/14 08:35:50;;;;;;;6.55;4.25;;;37.10;74.10;;;;;;5014786;28;20050;-61
2022/08/14 08:38:23;;;;;;;5.70;4.28;;;37.10;73.30;;;;;;4998545;28;20042;-62
2022/08/14 08:40:52;;;;;;;5.50;4.15;;;37.30;73.50;;;;;;5017371;28;20169;-62
2022/08/14 08:43:29;;;;;;;5.10;4.13;;;37.30;73.60;;;;;;5020875;28;20041;-61
2022/08/14 08:46:01;;;;;;;5.95;3.88;;;37.30;73.10;;;;;;5015688;28;20568;-62
2022/08/14 08:48:29;;;;;;;5.20;3.88;;;37.40;72.80;;;;;;5019768;28;20046;-62
2022/08/14 08:50:57;;;;;;;5.20;3.97;;;37.30;72.80;;;;;;5013556;28;20053;-62
2022/08/14 08:53:29;;;;;;;6.53;3.90;;;37.20;72.30;;;;;;5019283;28;20053;-62
2022/08/14 08:55:55;;;;;;;5.85;3.95;;;37.10;73.00;;;;;;5014245;28;20046;-61
2022/08/14 08:58:21;;;;;;;5.55;3.60;;;37.10;73.00;;;;;;5000200;28;20046;-62
2022/08/14 09:00:52;;;;;;;7.25;3.70;;;37.20;72.60;;;;;;5012437;28;20065;-63
2022/08/14 09:03:24;;;;;;;6.13;4.10;;;37.10;72.70;;;;;;5012821;28;20049;-62
2022/08/14 09:06:04;;;;;;;7.07;3.77;;;37.10;72.70;;;;;;5013027;28;20055;-62
2022/08/14 09:08:36;;;;;;;6.45;3.60;;;37.10;72.40;;;;;;5014603;28;20052;-62
2022/08/14 09:11:08;;;;;;;6.25;4.00;;;37.00;71.90;;;;;;5013151;28;20045;-62
2022/08/14 09:13:34;;;;;;;4.38;3.55;;;37.00;72.10;;;;;;5015085;28;20057;-61
2022/08/14 09:16:00;;;;;;;7.10;3.70;;;37.40;72.40;;;;;;5012462;28;20045;-62
2022/08/14 09:18:27;;;;;;;4.32;3.70;;;37.30;72.10;;;;;;5010370;28;20053;-61
2022/08/14 09:20:56;;;;;;;8.40;4.70;;;37.10;72.60;;;;;;5009929;28;20049;-63
2022/08/14 09:23:22;;;;;;;5.18;3.78;;;37.20;71.70;;;;;;5009711;28;20141;-62
2022/08/14 09:25:50;;;;;;;4.78;3.75;;;37.10;72.10;;;;;;5009075;28;20395;-62
2022/08/14 09:28:17;;;;;;;5.28;3.92;;;37.10;71.70;;;;;;5009849;28;20042;-63
2022/08/14 09:31:02;;;;;;;5.30;3.60;;;37.00;72.40;;;;;;5009648;28;20041;-62
2022/08/14 09:33:36;;;;;;;4.18;3.55;;;37.10;72.20;;;;;;5008397;28;20072;-62
2022/08/14 09:36:36;;;;;;;7.32;3.75;;;37.10;71.80;;;;;;5009658;28;20084;-63
2022/08/14 09:39:39;;;;;;;5.38;3.83;;;36.90;72.00;;;;;;5006524;28;20046;-62
2022/08/14 09:42:29;;;;;;;6.45;3.85;;;37.10;72.20;;;;;;5007711;28;20467;-62
2022/08/14 09:45:15;;;;;;;4.22;3.50;;;37.10;71.50;;;;;;5009657;28;20045;-62
2022/08/14 09:47:49;;;;;;;4.25;3.83;;;36.20;71.50;;;;;;5010805;28;20077;-61
2022/08/14 09:50:17;;;;;;;5.68;4.03;;;35.20;72.60;;;;;;5004842;28;20491;-62
2022/08/14 09:52:52;;;;;;;6.88;4.00;;;34.50;73.50;;;;;;5010847;28;20053;-62
2022/08/14 09:55:20;;;;;;;6.40;3.85;;;34.20;74.30;;;;;;5010230;28;20037;-61
2022/08/14 09:57:45;;;;;;;5.95;3.92;;;34.00;74.80;;;;;;5001046;28;20092;-62
2022/08/14 10:00:13;;;;;;;6.13;4.20;;;33.90;74.60;;;;;;5009165;28;20085;-61
2022/08/14 10:02:49;;;;;;;7.70;4.32;;;33.80;74.90;;;;;;4999628;28;20038;-62
2022/08/14 10:05:25;;;;;;;6.07;3.97;;;33.80;74.60;;;;;;4999377;28;20470;-62
2022/08/14 10:07:52;;;;;;;5.03;3.85;;;33.50;74.30;;;;;;4994328;28;20165;-62
2022/08/14 10:10:39;;;;;;;6.50;4.45;;;33.50;75.00;;;;;;5001029;28;20053;-62
2022/08/14 10:13:20;;;;;;;4.47;3.97;;;33.60;75.50;;;;;;4989240;28;20125;-63
2022/08/14 10:15:48;;;;;;;4.63;4.20;;;33.60;75.90;;;;;;5014788;28;20054;-61
2022/08/14 10:18:16;;;;;;;5.18;4.68;;;33.50;75.30;;;;;;4990001;28;20068;-62
2022/08/14 10:20:56;;;;;;;6.15;4.60;;;33.30;75.60;;;;;;4995327;28;20073;-62
2022/08/14 10:23:24;;;;;;;6.80;5.07;;;33.20;75.90;;;;;;4992234;28;20061;-67
2022/08/14 10:26:03;;;;;;;6.13;4.47;;;33.00;75.70;;;;;;4997856;28;20499;-63
2022/08/14 10:28:42;;;;;;;7.22;4.90;;;32.70;76.80;;;;;;4991640;28;20504;-62
2022/08/14 10:31:21;;;;;;;6.28;4.55;;;32.60;76.30;;;;;;4989919;28;20061;-62
2022/08/14 10:33:59;;;;;;;6.18;4.68;;;32.50;77.00;;;;;;4992481;28;20042;-63
2022/08/14 10:36:32;;;;;;;6.20;4.57;;;32.40;77.00;;;;;;4993283;28;20066;-62
2022/08/14 10:39:03;;;;;;;;;;;32.20;77.00;;;;;;4989407;28;20042;-62
2022/08/14 10:41:39;;;;;;;4.22;3.83;;;32.10;76.90;;;;;;4994441;28;19933;-62
2022/08/14 10:44:16;;;;;;;5.30;3.90;;;32.10;76.90;;;;;;4994304;28;20054;-61
2022/08/14 10:46:51;;;;;;;7.47;4.38;;;32.20;76.60;;;;;;4997158;28;20551;-62
2022/08/14 10:49:23;;;;;;;6.00;4.15;;;32.20;76.70;;;;;;4989979;28;20062;-63
2022/08/14 10:52:02;;;;;;;5.90;3.95;;;32.00;77.00;;;;;;5005004;28;20450;-62
2022/08/14 10:54:31;;;;;;;4.15;3.70;;;31.90;77.00;;;;;;4996380;28;20565;-62
2022/08/14 10:57:09;;;;;;;4.72;4.00;;;32.00;76.90;;;;;;4996815;28;20049;-62
2022/08/14 10:59:48;;;;;;;4.97;4.28;;;31.90;77.00;;;;;;4997999;28;20046;-61
2022/08/14 11:02:36;;;;;;;5.13;3.92;;;31.90;77.00;;;;;;4997241;28;20062;-61
2022/08/14 11:05:01;;;;;;;5.55;4.32;;;32.10;77.40;;;;;;4996051;28;20046;-62
2022/08/14 11:07:28;;;;;;;5.57;3.97;;;32.10;77.30;;;;;;4994680;28;20101;-62
2022/08/14 11:09:59;;;;;;;5.30;4.05;;;32.20;77.30;;;;;;4993671;28;20042;-63
2022/08/14 11:12:37;;;;;;;5.68;4.15;;;32.00;76.80;;;;;;4994875;28;20601;-61
2022/08/14 11:15:03;;;;;;;5.22;3.80;;;31.80;77.70;;;;;;4993719;28;20105;-61
2022/08/14 11:17:34;;;;;;;5.75;4.43;;;31.90;77.60;;;;;;4999305;28;20472;-62
2022/08/14 11:20:04;;;;;;;4.50;4.10;;;32.00;77.30;;;;;;5013754;28;20041;-61
2022/08/14 11:22:31;;;;;;;4.63;4.13;;;32.00;77.30;;;;;;5014044;28;20124;-62
2022/08/14 11:25:03;;;;;;;5.22;4.22;;;32.00;76.90;;;;;;5012116;28;20503;-63
2022/08/14 11:27:32;;;;;;;6.55;4.25;;;32.10;76.80;;;;;;5011839;28;20046;-62
2022/08/14 11:30:06;;;;;;;6.43;4.18;;;32.20;77.10;;;;;;5011625;28;20054;-64
2022/08/14 11:32:33;;;;;;;6.47;4.78;;;32.30;77.00;;;;;;5011805;28;20486;-62
2022/08/14 11:35:01;;;;;;;8.70;4.20;;;32.30;76.70;;;;;;5011245;28;20137;-65
2022/08/14 11:37:28;;;;;;;4.93;4.43;;;32.20;76.60;;;;;;5012144;28;20042;-63
2022/08/14 11:39:54;;;;;;;7.45;4.68;;;32.10;76.50;;;;;;5012013;28;20073;-63
2022/08/14 11:42:24;;;;;;;4.78;4.00;;;32.00;77.30;;;;;;5012232;28;20050;-63
2022/08/14 11:44:54;;;;;;;5.50;4.05;;;32.10;76.90;;;;;;5012107;28;20038;-63
2022/08/14 11:47:20;;;;;;;6.03;4.32;;;32.20;76.90;;;;;;5011838;28;20846;-63
2022/08/14 11:49:47;;;;;;;5.65;4.40;;;32.30;76.30;;;;;;5008292;28;20045;-63
2022/08/14 11:52:14;;;;;;;5.05;4.10;;;32.20;76.60;;;;;;5011985;28;20368;-63
2022/08/14 11:54:41;;;;;;;5.95;4.45;;;32.20;76.80;;;;;;5010875;28;20053;-63
2022/08/14 11:57:16;;;;;;;4.68;4.20;;;32.20;76.60;;;;;;5010844;28;20073;-64
2022/08/14 11:59:42;;;;;;;5.30;4.50;;;32.10;76.70;;;;;;5009163;28;20115;-62
2022/08/14 12:02:16;;;;;;;6.15;4.50;;;32.10;76.30;;;;;;5007250;28;20466;-63
2022/08/14 12:04:52;;;;;;;5.80;4.47;;;32.10;76.40;;;;;;5009092;28;20041;-64
2022/08/14 12:07:19;;;;;;;6.07;4.28;;;32.00;76.70;;;;;;5010615;28;20048;-62
2022/08/14 12:09:50;;;;;;;7.60;4.88;;;32.10;77.20;;;;;;5010556;28;20054;-64
2022/08/14 12:12:18;;;;;;;8.77;4.50;;;32.20;76.70;;;;;;5011359;28;20462;-63
2022/08/14 12:14:52;;;;;;;4.93;4.43;;;32.20;76.30;;;;;;4993723;28;20046;-64
2022/08/14 12:17:18;;;;;;;5.20;4.63;;;32.20;76.00;;;;;;5008570;28;20104;-64
2022/08/14 12:19:51;;;;;;;7.32;4.50;;;32.20;75.80;;;;;;5014082;28;20407;-63
2022/08/14 12:22:17;;;;;;;6.03;4.80;;;32.10;76.20;;;;;;5016237;28;20453;-64
2022/08/14 12:24:45;;;;;;;6.95;4.93;;;32.00;76.90;;;;;;5014599;28;20076;-63
2022/08/14 12:27:14;;;;;;;6.43;4.57;;;32.10;76.20;;;;;;5012124;28;20431;-63
2022/08/14 12:29:51;;;;;;;6.57;4.60;;;32.10;75.80;;;;;;5014033;28;20045;-63
2022/08/14 12:32:16;;;;;;;6.47;4.47;;;32.00;76.00;;;;;;5016858;28;20116;-63
2022/08/14 12:34:42;;;;;;;5.05;4.55;;;32.00;75.90;;;;;;5021468;28;20431;-62
2022/08/14 12:37:08;;;;;;;9.40;4.45;;;32.00;75.90;;;;;;5012515;28;20124;-63
2022/08/14 12:39:35;;;;;;;7.97;4.40;;;32.10;75.70;;;;;;5020552;28;20163;-63
2022/08/14 12:42:09;;;;;;;8.75;4.10;;;32.10;75.30;;;;;;5014853;28;20046;-63
2022/08/14 12:44:42;;;;;;;6.18;4.53;;;32.10;75.20;;;;;;5019312;28;20089;-62
2022/08/14 12:47:16;;;;;;;6.35;4.80;;;32.20;74.60;;;;;;5014099;28;20565;-64
2022/08/14 12:49:53;;;;;;;6.38;4.40;;;32.20;74.40;;;;;;5013359;28;20057;-62
2022/08/14 12:52:30;;;;;;;5.80;4.85;;;32.20;75.30;;;;;;5014855;28;20062;-63
2022/08/14 12:55:19;;;;;;;5.78;4.50;;;32.20;75.30;;;;;;5002319;28;20053;-63
2022/08/14 12:57:47;;;;;;;5.88;4.53;;;32.20;74.70;;;;;;5015453;28;20089;-63
2022/08/14 13:00:21;;;;;;;6.45;4.80;;;32.20;74.90;;;;;;5018555;28;20049;-63
2022/08/14 13:02:50;;;;;;;5.10;4.28;;;32.20;74.80;;;;;;5014576;28;20046;-63
2022/08/14 13:05:21;;;;;;;6.32;4.50;;;32.30;75.40;;;;;;5017801;28;20116;-62
2022/08/14 13:07:50;;;;;;;8.73;4.50;;;32.40;75.40;;;;;;4997297;28;20131;-63
2022/08/14 13:10:18;;;;;;;5.78;4.93;;;32.50;75.00;;;;;;5017646;28;20415;-63